createdAt,value
2018-03-26T00:00:48.670Z,1004.71
2018-03-26T00:01:48.693Z,1004.74
2018-03-26T00:02:48.713Z,1004.79
2018-03-26T00:03:48.735Z,1004.74
2018-03-26T00:04:48.759Z,1004.73
2018-03-26T00:05:48.777Z,1004.70
2018-03-26T00:06:48.789Z,1004.76
2018-03-26T00:07:48.818Z,1004.72
2018-03-26T00:08:48.828Z,1004.71
2018-03-26T00:09:48.857Z,1004.70
2018-03-26T00:10:48.873Z,1004.72
2018-03-26T00:11:48.896Z,1004.74
2018-03-26T00:12:48.907Z,1004.78
2018-03-26T00:13:48.934Z,1004.77
2018-03-26T00:14:48.950Z,1004.76
2018-03-26T00:15:48.965Z,1004.78
2018-03-26T00:16:48.992Z,1004.75
2018-03-26T00:17:49.007Z,1004.75
2018-03-26T00:18:49.024Z,1004.81
2018-03-26T00:19:49.052Z,1004.76
2018-03-26T00:20:49.064Z,1004.80
2018-03-26T00:21:49.128Z,1004.78
2018-03-26T00:22:49.104Z,1004.76
2018-03-26T00:23:49.123Z,1004.76
2018-03-26T00:24:49.143Z,1004.81
2018-03-26T00:25:49.161Z,1004.77
2018-03-26T00:26:49.189Z,1004.82
2018-03-26T00:27:49.205Z,1004.80
2018-03-26T00:28:49.222Z,1004.83
2018-03-26T00:29:49.247Z,1004.79
2018-03-26T00:30:49.260Z,1004.83
2018-03-26T00:31:49.281Z,1004.85
2018-03-26T00:32:49.302Z,1004.81
2018-03-26T00:33:49.322Z,1004.81
2018-03-26T00:34:49.363Z,1004.79
2018-03-26T00:35:49.363Z,1004.78
2018-03-26T00:36:49.377Z,1004.78
2018-03-26T00:37:49.397Z,1004.80
2018-03-26T00:38:49.421Z,1004.78
2018-03-26T00:39:49.436Z,1004.80
2018-03-26T00:40:49.454Z,1004.77
2018-03-26T00:41:49.480Z,1004.82
2018-03-26T00:42:49.492Z,1004.84
2018-03-26T00:43:49.520Z,1004.78
2018-03-26T00:44:49.531Z,1004.81
2018-03-26T00:45:49.550Z,1004.79
2018-03-26T00:46:49.578Z,1004.81
2018-03-26T00:47:49.590Z,1004.82
2018-03-26T00:48:49.616Z,1004.80
2018-03-26T00:49:49.642Z,1004.83
2018-03-26T00:50:49.651Z,1004.83
2018-03-26T00:51:49.675Z,1004.86
2018-03-26T00:52:49.690Z,1004.88
2018-03-26T00:53:49.705Z,1004.91
2018-03-26T00:54:49.733Z,1004.88
2018-03-26T00:55:49.750Z,1004.94
2018-03-26T00:56:49.765Z,1004.89
2018-03-26T00:57:49.783Z,1004.88
2018-03-26T00:58:49.810Z,1004.94
2018-03-26T00:59:49.827Z,1004.99
2018-03-26T01:00:49.845Z,1004.95
2018-03-26T01:01:49.868Z,1005.04
2018-03-26T01:02:49.880Z,1004.94
2018-03-26T01:03:49.903Z,1004.95
2018-03-26T01:04:49.923Z,1004.99
2018-03-26T01:05:49.946Z,1004.99
2018-03-26T01:06:49.960Z,1004.96
2018-03-26T01:07:49.985Z,1005.04
2018-03-26T01:08:50.004Z,1005.01
2018-03-26T01:09:50.025Z,1005.02
2018-03-26T01:10:50.040Z,1005.03
2018-03-26T01:11:50.063Z,1004.98
2018-03-26T01:12:50.073Z,1005.02
2018-03-26T01:13:50.105Z,1005.04
2018-03-26T01:14:50.113Z,1005.04
2018-03-26T01:15:50.134Z,1005.04
2018-03-26T01:16:50.154Z,1005.07
2018-03-26T01:17:50.170Z,1005.04
2018-03-26T01:18:50.197Z,1005.03
2018-03-26T01:19:50.214Z,1005.03
2018-03-26T01:20:50.229Z,1005.03
2018-03-26T01:21:50.249Z,1005.02
2018-03-26T01:22:50.272Z,1005.07
2018-03-26T01:23:50.288Z,1005.08
2018-03-26T01:24:50.309Z,1005.09
2018-03-26T01:25:50.329Z,1005.09
2018-03-26T01:26:50.345Z,1005.08
2018-03-26T01:27:50.368Z,1005.10
2018-03-26T01:28:50.383Z,1005.08
2018-03-26T01:29:50.408Z,1005.11
2018-03-26T01:30:50.422Z,1005.10
2018-03-26T01:31:50.439Z,1005.14
2018-03-26T01:32:50.465Z,1005.10
2018-03-26T01:33:50.488Z,1005.12
2018-03-26T01:34:50.496Z,1005.13
2018-03-26T01:35:50.524Z,1005.14
2018-03-26T01:36:50.534Z,1005.14
2018-03-26T01:37:50.554Z,1005.17
2018-03-26T01:38:50.581Z,1005.20
2018-03-26T01:39:50.593Z,1005.18
2018-03-26T01:40:50.619Z,1005.24
2018-03-26T01:41:50.639Z,1005.22
2018-03-26T01:42:50.650Z,1005.23
2018-03-26T01:43:50.678Z,1005.26
2018-03-26T01:44:50.688Z,1005.27
2018-03-26T01:45:50.709Z,1005.27
2018-03-26T01:46:50.735Z,1005.25
2018-03-26T01:47:50.754Z,1005.29
2018-03-26T01:48:50.764Z,1005.30
2018-03-26T01:49:50.784Z,1005.29
2018-03-26T01:50:50.812Z,1005.29
2018-03-26T01:51:50.823Z,1005.34
2018-03-26T01:52:50.849Z,1005.30
2018-03-26T01:53:50.863Z,1005.32
2018-03-26T01:54:50.881Z,1005.33
2018-03-26T01:55:50.908Z,1005.35
2018-03-26T01:56:50.918Z,1005.37
2018-03-26T01:57:50.943Z,1005.38
2018-03-26T01:58:50.959Z,1005.41
2018-03-26T01:59:50.976Z,1005.38
2018-03-26T02:00:50.998Z,1005.47
2018-03-26T02:01:51.013Z,1005.47
2018-03-26T02:02:51.054Z,1005.51
2018-03-26T02:03:51.059Z,1005.58
2018-03-26T02:04:51.074Z,1005.52
2018-03-26T02:05:51.098Z,1005.57
2018-03-26T02:06:51.110Z,1005.54
2018-03-26T02:07:51.133Z,1005.58
2018-03-26T02:08:51.153Z,1005.57
2018-03-26T02:09:51.175Z,1005.59
2018-03-26T02:10:51.194Z,1005.57
2018-03-26T02:11:51.205Z,1005.56
2018-03-26T02:12:51.226Z,1005.56
2018-03-26T02:13:51.247Z,1005.59
2018-03-26T02:14:51.269Z,1005.53
2018-03-26T02:15:51.285Z,1005.60
2018-03-26T02:16:51.306Z,1005.60
2018-03-26T02:17:51.328Z,1005.60
2018-03-26T02:18:51.338Z,1005.63
2018-03-26T02:19:51.362Z,1005.60
2018-03-26T02:20:51.383Z,1005.65
2018-03-26T02:21:51.395Z,1005.60
2018-03-26T02:22:51.425Z,1005.63
2018-03-26T02:23:51.441Z,1005.61
2018-03-26T02:24:51.457Z,1005.59
2018-03-26T02:25:51.475Z,1005.60
2018-03-26T02:26:51.497Z,1005.59
2018-03-26T02:27:51.516Z,1005.61
2018-03-26T02:28:51.535Z,1005.57
2018-03-26T02:29:51.555Z,1005.67
2018-03-26T02:30:51.570Z,1005.72
2018-03-26T02:31:51.594Z,1005.68
2018-03-26T02:32:51.610Z,1005.68
2018-03-26T02:33:51.626Z,1005.70
2018-03-26T02:34:51.654Z,1005.74
2018-03-26T02:35:51.664Z,1005.68
2018-03-26T02:36:51.691Z,1005.73
2018-03-26T02:37:51.710Z,1005.72
2018-03-26T02:38:51.722Z,1005.72
2018-03-26T02:39:51.748Z,1005.74
2018-03-26T02:40:51.757Z,1005.75
2018-03-26T02:41:51.782Z,1005.72
2018-03-26T02:42:51.801Z,1005.77
2018-03-26T02:43:51.821Z,1005.78
2018-03-26T02:44:51.836Z,1005.74
2018-03-26T02:45:51.858Z,1005.78
2018-03-26T02:46:51.877Z,1005.79
2018-03-26T02:47:51.896Z,1005.81
2018-03-26T02:48:51.924Z,1005.83
2018-03-26T02:49:51.938Z,1005.84
2018-03-26T02:50:51.956Z,1005.81
2018-03-26T02:51:51.980Z,1005.81
2018-03-26T02:52:51.987Z,1005.85
2018-03-26T02:53:52.005Z,1005.84
2018-03-26T02:54:52.035Z,1005.78
2018-03-26T02:55:52.043Z,1005.80
2018-03-26T02:56:52.071Z,1005.86
2018-03-26T02:57:52.081Z,1005.86
2018-03-26T02:58:52.103Z,1005.86
2018-03-26T02:59:52.125Z,1005.84
2018-03-26T03:00:52.145Z,1005.81
2018-03-26T03:01:52.164Z,1005.81
2018-03-26T03:02:52.176Z,1005.83
2018-03-26T03:03:52.209Z,1005.86
2018-03-26T03:04:52.213Z,1005.86
2018-03-26T03:05:52.235Z,1005.85
2018-03-26T03:06:52.258Z,1005.87
2018-03-26T03:07:52.278Z,1005.90
2018-03-26T03:08:52.289Z,1005.86
2018-03-26T03:09:52.314Z,1005.90
2018-03-26T03:10:52.329Z,1005.87
2018-03-26T03:11:52.345Z,1005.89
2018-03-26T03:12:52.372Z,1005.92
2018-03-26T03:13:52.391Z,1005.92
2018-03-26T03:14:52.408Z,1005.89
2018-03-26T03:15:52.429Z,1005.88
2018-03-26T03:16:52.445Z,1005.92
2018-03-26T03:17:52.460Z,1005.90
2018-03-26T03:18:52.485Z,1005.92
2018-03-26T03:19:52.504Z,1005.90
2018-03-26T03:20:52.517Z,1005.93
2018-03-26T03:21:52.539Z,1005.90
2018-03-26T03:22:52.556Z,1005.89
2018-03-26T03:23:52.577Z,1005.87
2018-03-26T03:24:52.596Z,1005.91
2018-03-26T03:25:52.612Z,1005.83
2018-03-26T03:26:52.634Z,1005.88
2018-03-26T03:27:52.651Z,1005.90
2018-03-26T03:28:52.672Z,1005.90
2018-03-26T03:29:52.689Z,1005.87
2018-03-26T03:30:52.762Z,1005.85
2018-03-26T03:31:52.724Z,1005.88
2018-03-26T03:32:52.751Z,1005.92
2018-03-26T03:33:52.761Z,1005.90
2018-03-26T03:34:52.784Z,1005.90
2018-03-26T03:35:52.805Z,1005.94
2018-03-26T03:36:52.822Z,1005.92
2018-03-26T03:37:52.843Z,1005.92
2018-03-26T03:38:52.855Z,1005.96
2018-03-26T03:39:52.876Z,1005.97
2018-03-26T03:40:52.901Z,1005.94
2018-03-26T03:41:52.910Z,1005.91
2018-03-26T03:42:52.938Z,1005.95
2018-03-26T03:43:52.954Z,1005.97
2018-03-26T03:44:52.967Z,1005.95
2018-03-26T03:45:52.989Z,1005.95
2018-03-26T03:46:53.004Z,1005.95
2018-03-26T03:47:53.033Z,1005.99
2018-03-26T03:48:53.046Z,1005.99
2018-03-26T03:49:53.066Z,1006.03
2018-03-26T03:50:53.121Z,1005.94
2018-03-26T03:51:53.099Z,1005.94
2018-03-26T03:52:53.119Z,1005.99
2018-03-26T03:53:53.136Z,1005.98
2018-03-26T03:54:53.164Z,1006.04
2018-03-26T03:55:53.180Z,1005.98
2018-03-26T03:56:53.196Z,1006.02
2018-03-26T03:57:53.220Z,1005.99
2018-03-26T03:58:53.230Z,1006.00
2018-03-26T03:59:53.253Z,1005.98
2018-03-26T04:00:53.272Z,1006.01
2018-03-26T04:01:53.291Z,1005.96
2018-03-26T04:02:53.316Z,1006.00
2018-03-26T04:03:53.330Z,1006.02
2018-03-26T04:04:53.349Z,1005.99
2018-03-26T04:05:53.363Z,1005.97
2018-03-26T04:06:53.385Z,1006.00
2018-03-26T04:07:53.408Z,1006.00
2018-03-26T04:08:53.417Z,1006.01
2018-03-26T04:09:53.443Z,1006.02
2018-03-26T04:10:53.454Z,1006.05
2018-03-26T04:11:53.481Z,1006.07
2018-03-26T04:12:53.491Z,1006.00
2018-03-26T04:13:53.515Z,1006.01
2018-03-26T04:14:53.533Z,1006.09
2018-03-26T04:15:53.548Z,1006.15
2018-03-26T04:16:53.574Z,1006.11
2018-03-26T04:17:53.613Z,1006.06
2018-03-26T04:18:53.603Z,1006.06
2018-03-26T04:19:53.629Z,1006.10
2018-03-26T04:20:53.643Z,1006.17
2018-03-26T04:21:53.666Z,1006.15
2018-03-26T04:22:53.687Z,1006.13
2018-03-26T04:23:53.698Z,1006.11
2018-03-26T04:24:53.723Z,1006.09
2018-03-26T04:25:53.734Z,1006.15
2018-03-26T04:26:53.761Z,1006.22
2018-03-26T04:27:53.777Z,1006.09
2018-03-26T04:28:53.795Z,1006.15
2018-03-26T04:29:53.811Z,1006.18
2018-03-26T04:30:53.833Z,1006.19
2018-03-26T04:31:53.849Z,1006.21
2018-03-26T04:32:53.870Z,1006.19
2018-03-26T04:33:53.890Z,1006.22
2018-03-26T04:34:53.912Z,1006.26
2018-03-26T04:35:53.922Z,1006.19
2018-03-26T04:36:53.948Z,1006.22
2018-03-26T04:37:53.961Z,1006.25
2018-03-26T04:38:53.984Z,1006.21
2018-03-26T04:39:54.005Z,1006.22
2018-03-26T04:40:54.021Z,1006.22
2018-03-26T04:41:54.042Z,1006.28
2018-03-26T04:42:54.052Z,1006.28
2018-03-26T04:43:54.076Z,1006.32
2018-03-26T04:44:54.097Z,1006.31
2018-03-26T04:45:54.108Z,1006.32
2018-03-26T04:46:54.137Z,1006.32
2018-03-26T04:47:54.157Z,1006.32
2018-03-26T04:48:54.167Z,1006.28
2018-03-26T04:49:54.192Z,1006.26
2018-03-26T04:50:54.208Z,1006.27
2018-03-26T04:51:54.224Z,1006.24
2018-03-26T04:52:54.246Z,1006.27
2018-03-26T04:53:54.260Z,1006.28
2018-03-26T04:54:54.286Z,1006.25
2018-03-26T04:55:54.349Z,1006.33
2018-03-26T04:56:54.325Z,1006.29
2018-03-26T04:57:54.334Z,1006.32
2018-03-26T04:58:54.362Z,1006.34
2018-03-26T04:59:54.378Z,1006.36
2018-03-26T05:00:54.392Z,1006.34
2018-03-26T05:01:54.421Z,1006.33
2018-03-26T05:02:54.430Z,1006.38
2018-03-26T05:03:54.451Z,1006.39
2018-03-26T05:04:54.472Z,1006.36
2018-03-26T05:05:54.489Z,1006.38
2018-03-26T05:06:54.515Z,1006.43
2018-03-26T05:07:54.526Z,1006.40
2018-03-26T05:08:54.550Z,1006.40
2018-03-26T05:09:54.571Z,1006.44
2018-03-26T05:10:54.580Z,1006.43
2018-03-26T05:11:54.607Z,1006.44
2018-03-26T05:12:54.615Z,1006.42
2018-03-26T05:13:54.636Z,1006.44
2018-03-26T05:14:54.658Z,1006.54
2018-03-26T05:15:54.674Z,1006.47
2018-03-26T05:16:54.790Z,1006.49
2018-03-26T05:17:54.714Z,1006.55
2018-03-26T05:18:54.731Z,1006.53
2018-03-26T05:19:54.752Z,1006.52
2018-03-26T05:20:54.768Z,1006.52
2018-03-26T05:21:54.830Z,1006.61
2018-03-26T05:22:54.803Z,1006.59
2018-03-26T05:23:54.831Z,1006.64
2018-03-26T05:24:54.840Z,1006.63
2018-03-26T05:25:54.859Z,1006.65
2018-03-26T05:26:54.886Z,1006.64
2018-03-26T05:27:54.896Z,1006.68
2018-03-26T05:28:54.922Z,1006.70
2018-03-26T05:29:54.938Z,1006.71
2018-03-26T05:30:54.981Z,1006.73
2018-03-26T05:31:54.977Z,1006.74
2018-03-26T05:32:54.993Z,1006.67
2018-03-26T05:33:55.012Z,1006.72
2018-03-26T05:34:55.036Z,1006.81
2018-03-26T05:35:55.049Z,1006.78
2018-03-26T05:36:55.105Z,1006.80
2018-03-26T05:37:55.084Z,1006.81
2018-03-26T05:38:55.106Z,1006.82
2018-03-26T05:39:55.126Z,1006.88
2018-03-26T05:40:55.143Z,1006.81
2018-03-26T05:41:55.167Z,1006.85
2018-03-26T05:42:55.179Z,1006.90
2018-03-26T05:43:55.199Z,1006.92
2018-03-26T05:44:55.214Z,1006.91
2018-03-26T05:45:55.235Z,1006.97
2018-03-26T05:46:55.337Z,1006.99
2018-03-26T05:47:55.280Z,1006.95
2018-03-26T05:48:55.295Z,1007.00
2018-03-26T05:49:55.315Z,1006.98
2018-03-26T05:50:55.332Z,1007.02
2018-03-26T05:51:55.347Z,1007.05
2018-03-26T05:52:55.373Z,1007.01
2018-03-26T05:53:55.392Z,1007.09
2018-03-26T05:54:55.409Z,1007.07
2018-03-26T05:55:55.423Z,1007.15
2018-03-26T05:56:55.448Z,1007.13
2018-03-26T05:57:55.459Z,1007.15
2018-03-26T05:58:55.486Z,1007.14
2018-03-26T05:59:55.506Z,1007.18
2018-03-26T06:00:55.523Z,1007.15
2018-03-26T06:01:55.538Z,1007.21
2018-03-26T06:02:55.556Z,1007.20
2018-03-26T06:03:55.572Z,1007.25
2018-03-26T06:04:55.599Z,1007.24
2018-03-26T06:05:55.613Z,1007.25
2018-03-26T06:06:55.633Z,1007.27
2018-03-26T06:07:55.656Z,1007.25
2018-03-26T06:08:55.665Z,1007.30
2018-03-26T06:09:55.684Z,1007.29
2018-03-26T06:10:55.711Z,1007.31
2018-03-26T06:11:55.724Z,1007.32
2018-03-26T06:12:55.760Z,1007.34
2018-03-26T06:13:55.767Z,1007.36
2018-03-26T06:14:55.778Z,1007.37
2018-03-26T06:15:55.805Z,1007.39
2018-03-26T06:16:55.817Z,1007.37
2018-03-26T06:17:55.841Z,1007.39
2018-03-26T06:18:55.854Z,1007.47
2018-03-26T06:19:55.874Z,1007.50
2018-03-26T06:20:55.894Z,1007.46
2018-03-26T06:21:55.913Z,1007.41
2018-03-26T06:22:55.929Z,1007.45
2018-03-26T06:23:55.952Z,1007.46
2018-03-26T06:24:56.002Z,1007.49
2018-03-26T06:25:55.986Z,1007.52
2018-03-26T06:26:56.008Z,1007.44
2018-03-26T06:27:56.023Z,1007.48
2018-03-26T06:28:56.044Z,1007.42
2018-03-26T06:29:56.063Z,1007.50
2018-03-26T06:30:56.081Z,1007.46
2018-03-26T06:31:56.100Z,1007.51
2018-03-26T06:32:56.118Z,1007.53
2018-03-26T06:33:56.134Z,1007.55
2018-03-26T06:34:56.161Z,1007.57
2018-03-26T06:35:56.177Z,1007.57
2018-03-26T06:36:56.193Z,1007.58
2018-03-26T06:37:56.215Z,1007.62
2018-03-26T06:38:56.233Z,1007.65
2018-03-26T06:39:56.247Z,1007.68
2018-03-26T06:40:56.270Z,1007.70
2018-03-26T06:41:56.289Z,1007.71
2018-03-26T06:42:56.310Z,1007.79
2018-03-26T06:43:56.326Z,1007.74
2018-03-26T06:44:56.341Z,1007.85
2018-03-26T06:45:56.361Z,1008.72
2018-03-26T06:46:56.383Z,1008.02
2018-03-26T06:47:56.402Z,1007.96
2018-03-26T06:48:56.416Z,1007.93
2018-03-26T06:49:56.438Z,1007.95
2018-03-26T06:50:56.458Z,1007.93
2018-03-26T06:51:56.481Z,1007.96
2018-03-26T06:52:56.490Z,1007.99
2018-03-26T06:53:56.516Z,1008.10
2018-03-26T06:54:56.532Z,1007.96
2018-03-26T06:55:56.548Z,1008.02
2018-03-26T06:56:56.575Z,1007.99
2018-03-26T06:57:56.588Z,1007.93
2018-03-26T06:58:56.606Z,1007.95
2018-03-26T06:59:56.635Z,1007.96
2018-03-26T07:00:56.644Z,1007.98
2018-03-26T07:01:56.667Z,1008.01
2018-03-26T07:02:56.686Z,1008.05
2018-03-26T07:03:56.701Z,1008.08
2018-03-26T07:04:56.722Z,1008.31
2018-03-26T07:05:56.746Z,1008.52
2018-03-26T07:06:56.760Z,1008.32
2018-03-26T07:07:56.778Z,1008.11
2018-03-26T07:08:56.805Z,1008.17
2018-03-26T07:09:56.818Z,1008.84
2018-03-26T07:10:56.842Z,1010.09
2018-03-26T07:11:56.863Z,1009.10
2018-03-26T07:12:56.874Z,1008.32
2018-03-26T07:13:56.903Z,1010.56
2018-03-26T07:14:56.914Z,1010.46
2018-03-26T07:15:56.935Z,1008.92
2018-03-26T07:16:56.958Z,1008.59
2018-03-26T07:17:56.972Z,1008.78
2018-03-26T07:18:57.013Z,1008.35
2018-03-26T07:19:57.019Z,1009.50
2018-03-26T07:20:57.034Z,1009.70
2018-03-26T07:21:57.053Z,1008.97
2018-03-26T07:22:57.082Z,1008.25
2018-03-26T07:23:57.094Z,1008.18
2018-03-26T07:24:57.116Z,1008.13
2018-03-26T07:25:57.138Z,1008.17
2018-03-26T07:26:57.155Z,1008.18
2018-03-26T07:27:57.178Z,1008.14
2018-03-26T07:28:57.207Z,1008.18
2018-03-26T07:29:57.215Z,1008.21
2018-03-26T07:30:57.244Z,1008.26
2018-03-26T07:31:57.262Z,1008.22
2018-03-26T07:32:57.280Z,1008.26
2018-03-26T07:33:57.305Z,1008.24
2018-03-26T07:34:57.316Z,1008.21
2018-03-26T07:35:57.341Z,1008.30
2018-03-26T07:36:57.362Z,1008.86
2018-03-26T07:37:57.379Z,1009.13
2018-03-26T07:38:57.454Z,1009.12
2018-03-26T07:39:57.421Z,1009.11
2018-03-26T07:40:57.437Z,1009.06
2018-03-26T07:41:57.458Z,1009.06
2018-03-26T07:42:57.481Z,1009.04
2018-03-26T07:43:57.501Z,1009.02
2018-03-26T07:44:57.529Z,1009.02
2018-03-26T07:45:57.556Z,1009.01
2018-03-26T07:46:57.569Z,1008.94
2018-03-26T07:47:57.595Z,1008.94
2018-03-26T07:48:57.608Z,1008.89
2018-03-26T07:49:57.635Z,1008.81
2018-03-26T07:50:57.657Z,1008.87
2018-03-26T07:51:57.711Z,1008.84
2018-03-26T07:52:57.719Z,1008.80
2018-03-26T07:53:57.728Z,1008.77
2018-03-26T07:54:57.749Z,1008.74
2018-03-26T07:55:57.775Z,1008.80
2018-03-26T07:56:57.801Z,1008.75
2018-03-26T07:57:57.822Z,1008.70
2018-03-26T07:58:57.843Z,1008.74
2018-03-26T07:59:57.875Z,1008.88
2018-03-26T08:00:57.892Z,1009.22
2018-03-26T08:01:57.922Z,1009.48
2018-03-26T08:02:57.946Z,1009.47
2018-03-26T08:03:57.974Z,1009.50
2018-03-26T08:04:57.996Z,1009.45
2018-03-26T08:05:58.021Z,1009.42
2018-03-26T08:06:58.049Z,1009.46
2018-03-26T08:07:58.072Z,1009.54
2018-03-26T08:08:58.102Z,1009.56
2018-03-26T08:09:58.126Z,1009.56
2018-03-26T08:10:58.155Z,1009.53
2018-03-26T08:11:58.180Z,1009.57
2018-03-26T08:12:58.202Z,1009.53
2018-03-26T08:13:58.253Z,1009.45
2018-03-26T08:14:58.294Z,1009.52
2018-03-26T08:15:58.363Z,1009.53
2018-03-26T08:16:58.356Z,1009.55
2018-03-26T08:17:58.381Z,1009.55
2018-03-26T08:18:58.403Z,1009.56
2018-03-26T08:19:58.423Z,1009.52
2018-03-26T08:20:58.426Z,1009.43
2018-03-26T08:21:58.453Z,1009.49
2018-03-26T08:22:58.484Z,1009.49
2018-03-26T08:23:58.511Z,1009.51
2018-03-26T08:24:58.535Z,1009.57
2018-03-26T08:25:58.561Z,1009.53
2018-03-26T08:26:58.597Z,1009.52
2018-03-26T08:27:58.617Z,1009.59
2018-03-26T08:28:58.649Z,1009.64
2018-03-26T08:29:58.676Z,1009.60
2018-03-26T08:30:58.740Z,1009.55
2018-03-26T08:31:58.732Z,1009.55
2018-03-26T08:32:58.799Z,1009.58
2018-03-26T08:33:58.802Z,1009.51
2018-03-26T08:34:58.824Z,1009.49
2018-03-26T08:35:58.849Z,1009.48
2018-03-26T08:36:58.876Z,1009.47
2018-03-26T08:37:58.909Z,1009.47
2018-03-26T08:38:58.931Z,1009.50
2018-03-26T08:39:58.962Z,1009.49
2018-03-26T08:40:58.995Z,1009.50
2018-03-26T08:41:59.026Z,1009.51
2018-03-26T08:42:59.048Z,1009.56
2018-03-26T08:43:59.084Z,1009.51
2018-03-26T08:44:59.110Z,1009.56
2018-03-26T08:45:59.141Z,1009.56
2018-03-26T08:46:59.173Z,1009.61
2018-03-26T08:47:59.198Z,1009.54
2018-03-26T08:48:59.224Z,1009.51
2018-03-26T08:49:59.377Z,1009.49
2018-03-26T08:50:59.290Z,1009.49
2018-03-26T08:51:59.318Z,1009.49
2018-03-26T08:52:59.339Z,1009.51
2018-03-26T08:53:59.380Z,1009.56
2018-03-26T08:54:59.400Z,1009.53
2018-03-26T08:55:59.429Z,1009.50
2018-03-26T08:56:59.464Z,1009.51
2018-03-26T08:57:59.487Z,1009.49
2018-03-26T08:58:59.522Z,1009.49
2018-03-26T08:59:59.553Z,1009.46
2018-03-26T09:00:59.579Z,1009.47
2018-03-26T09:01:59.613Z,1009.49
2018-03-26T09:02:59.635Z,1009.50
2018-03-26T09:03:59.667Z,1009.47
2018-03-26T09:04:59.694Z,1009.48
2018-03-26T09:05:59.732Z,1009.48
2018-03-26T09:06:59.757Z,1009.48
2018-03-26T09:07:59.796Z,1009.46
2018-03-26T09:08:59.816Z,1009.43
2018-03-26T09:09:59.846Z,1009.43
2018-03-26T09:10:59.878Z,1009.40
2018-03-26T09:11:59.932Z,1009.41
2018-03-26T09:12:59.940Z,1009.43
2018-03-26T09:13:59.967Z,1009.44
2018-03-26T09:14:59.998Z,1009.40
2018-03-26T09:16:00.032Z,1009.46
2018-03-26T09:17:00.053Z,1009.48
2018-03-26T09:18:00.083Z,1009.52
2018-03-26T09:19:00.117Z,1009.50
2018-03-26T09:20:00.145Z,1009.54
2018-03-26T09:21:00.175Z,1009.54
2018-03-26T09:22:00.208Z,1009.60
2018-03-26T09:23:00.246Z,1009.64
2018-03-26T09:24:00.274Z,1009.72
2018-03-26T09:25:00.296Z,1009.73
2018-03-26T09:26:00.339Z,1009.72
2018-03-26T09:27:00.360Z,1009.75
2018-03-26T09:28:00.387Z,1009.73
2018-03-26T09:29:00.425Z,1009.73
2018-03-26T09:30:00.453Z,1009.73
2018-03-26T09:31:00.480Z,1009.75
2018-03-26T09:32:00.518Z,1009.76
2018-03-26T09:33:00.547Z,1009.71
2018-03-26T09:34:00.573Z,1009.73
2018-03-26T09:35:00.601Z,1009.79
2018-03-26T09:36:00.641Z,1009.81
2018-03-26T09:37:00.662Z,1009.78
2018-03-26T09:38:00.699Z,1009.82
2018-03-26T09:39:00.727Z,1009.81
2018-03-26T09:40:00.754Z,1009.83
2018-03-26T09:41:00.793Z,1009.84
2018-03-26T09:42:00.823Z,1009.87
2018-03-26T09:43:00.855Z,1009.82
2018-03-26T09:44:00.887Z,1009.84
2018-03-26T09:45:00.910Z,1009.79
2018-03-26T09:46:00.942Z,1009.67
2018-03-26T09:47:00.976Z,1009.65
2018-03-26T09:48:01.021Z,1009.68
2018-03-26T09:49:01.038Z,1009.82
2018-03-26T09:50:01.068Z,1009.86
2018-03-26T09:51:01.102Z,1009.85
2018-03-26T09:52:01.130Z,1009.81
2018-03-26T09:53:01.157Z,1009.80
2018-03-26T09:54:01.190Z,1009.68
2018-03-26T09:55:01.246Z,1009.59
2018-03-26T09:56:01.254Z,1009.55
2018-03-26T09:57:01.285Z,1009.51
2018-03-26T09:58:01.319Z,1009.52
2018-03-26T09:59:01.347Z,1009.51
2018-03-26T10:00:01.378Z,1009.63
2018-03-26T10:01:01.406Z,1009.75
2018-03-26T10:02:01.441Z,1009.77
2018-03-26T10:03:01.491Z,1009.72
2018-03-26T10:04:01.498Z,1009.78
2018-03-26T10:05:01.536Z,1009.71
2018-03-26T10:06:01.568Z,1009.76
2018-03-26T10:07:01.597Z,1009.76
2018-03-26T10:08:01.630Z,1009.76
2018-03-26T10:09:01.653Z,1009.71
2018-03-26T10:10:01.690Z,1009.71
2018-03-26T10:11:01.724Z,1009.68
2018-03-26T10:12:01.751Z,1009.72
2018-03-26T10:13:01.781Z,1009.76
2018-03-26T10:14:01.813Z,1009.72
2018-03-26T10:15:01.846Z,1009.69
2018-03-26T10:16:01.875Z,1009.66
2018-03-26T10:17:01.911Z,1009.64
2018-03-26T10:18:01.992Z,1009.61
2018-03-26T10:19:01.979Z,1009.63
2018-03-26T10:20:02.026Z,1009.61
2018-03-26T10:21:02.054Z,1009.60
2018-03-26T10:22:02.069Z,1009.64
2018-03-26T10:23:02.097Z,1009.61
2018-03-26T10:24:02.144Z,1009.59
2018-03-26T10:25:02.176Z,1009.65
2018-03-26T10:26:02.289Z,1009.59
2018-03-26T10:27:02.255Z,1009.64
2018-03-26T10:28:02.316Z,1009.64
2018-03-26T10:29:02.321Z,1009.64
2018-03-26T10:30:02.367Z,1009.69
2018-03-26T10:31:02.377Z,1009.64
2018-03-26T10:32:02.458Z,1009.57
2018-03-26T10:33:02.441Z,1009.40
2018-03-26T10:34:02.502Z,1009.49
2018-03-26T10:35:02.527Z,1009.60
2018-03-26T10:36:02.521Z,1009.71
2018-03-26T10:37:02.563Z,1009.71
2018-03-26T10:38:02.586Z,1009.70
2018-03-26T10:39:02.621Z,1009.67
2018-03-26T10:40:02.675Z,1009.47
2018-03-26T10:41:02.713Z,1009.63
2018-03-26T10:42:02.696Z,1009.67
2018-03-26T10:43:02.758Z,1009.69
2018-03-26T10:44:02.760Z,1009.73
2018-03-26T10:45:02.825Z,1009.74
2018-03-26T10:46:02.893Z,1009.68
2018-03-26T10:47:02.852Z,1009.69
2018-03-26T10:48:02.885Z,1009.67
2018-03-26T10:49:02.941Z,1009.74
2018-03-26T10:50:02.960Z,1009.66
2018-03-26T10:51:03.084Z,1009.72
2018-03-26T10:52:03.051Z,1009.71
2018-03-26T10:53:03.052Z,1009.72
2018-03-26T10:54:03.073Z,1009.72
2018-03-26T10:55:03.104Z,1009.73
2018-03-26T10:56:03.165Z,1009.73
2018-03-26T10:57:03.183Z,1009.77
2018-03-26T10:58:03.198Z,1009.77
2018-03-26T10:59:03.239Z,1009.76
2018-03-26T11:00:03.278Z,1009.83
2018-03-26T11:01:03.341Z,1009.61
2018-03-26T11:02:03.324Z,1009.67
2018-03-26T11:03:03.352Z,1009.59
2018-03-26T11:04:03.465Z,1009.70
2018-03-26T11:05:03.409Z,1009.78
2018-03-26T11:06:03.439Z,1009.75
2018-03-26T11:07:03.478Z,1009.73
2018-03-26T11:08:03.502Z,1009.67
2018-03-26T11:09:03.555Z,1009.61
2018-03-26T11:10:03.576Z,1009.67
2018-03-26T11:11:03.688Z,1009.57
2018-03-26T11:12:03.648Z,1009.53
2018-03-26T11:13:03.685Z,1009.59
2018-03-26T11:14:03.700Z,1009.65
2018-03-26T11:15:03.721Z,1009.74
2018-03-26T11:16:03.833Z,1009.73
2018-03-26T11:17:03.796Z,1009.72
2018-03-26T11:18:03.824Z,1009.76
2018-03-26T11:19:03.871Z,1009.81
2018-03-26T11:20:03.905Z,1009.80
2018-03-26T11:21:03.973Z,1009.77
2018-03-26T11:22:03.961Z,1009.70
2018-03-26T11:23:03.970Z,1009.67
2018-03-26T11:24:04.021Z,1009.71
2018-03-26T11:25:04.025Z,1009.75
2018-03-26T11:26:04.055Z,1009.75
2018-03-26T11:27:04.096Z,1009.68
2018-03-26T11:28:04.174Z,1009.58
2018-03-26T11:29:04.157Z,1009.62
2018-03-26T11:30:04.179Z,1009.56
2018-03-26T11:31:04.218Z,1009.54
2018-03-26T11:32:04.251Z,1009.66
2018-03-26T11:33:04.270Z,1009.61
2018-03-26T11:34:04.309Z,1009.61
2018-03-26T11:35:04.331Z,1009.56
2018-03-26T11:36:04.366Z,1009.48
2018-03-26T11:37:04.397Z,1009.50
2018-03-26T11:38:04.431Z,1009.51
2018-03-26T11:39:04.452Z,1009.29
2018-03-26T11:40:04.492Z,1009.31
2018-03-26T11:41:04.518Z,1009.45
2018-03-26T11:42:04.547Z,1009.46
2018-03-26T11:43:04.585Z,1009.59
2018-03-26T11:44:04.610Z,1009.61
2018-03-26T11:45:04.636Z,1009.52
2018-03-26T11:46:04.680Z,1009.62
2018-03-26T11:47:04.694Z,1009.68
2018-03-26T11:48:04.732Z,1009.62
2018-03-26T11:49:04.753Z,1009.58
2018-03-26T11:50:04.782Z,1009.61
2018-03-26T11:51:04.821Z,1009.59
2018-03-26T11:52:04.843Z,1009.60
2018-03-26T11:53:04.879Z,1009.63
2018-03-26T11:54:04.902Z,1009.69
2018-03-26T11:55:04.939Z,1009.61
2018-03-26T11:56:04.967Z,1009.63
2018-03-26T11:57:04.997Z,1009.68
2018-03-26T11:58:05.021Z,1009.68
2018-03-26T11:59:05.050Z,1009.73
2018-03-26T12:00:05.088Z,1009.72
2018-03-26T12:01:05.108Z,1009.71
2018-03-26T12:02:05.178Z,1009.70
2018-03-26T12:03:05.171Z,1009.68
2018-03-26T12:04:05.199Z,1009.71
2018-03-26T12:05:05.234Z,1009.71
2018-03-26T12:06:05.261Z,1009.64